createdAt,value
2022-09-15T00:02:22.240Z,2.27
2022-09-15T00:04:48.654Z,2.58
2022-09-15T00:07:15.865Z,2.20
2022-09-15T00:09:42.272Z,2.40
2022-09-15T00:12:08.688Z,1.98
2022-09-15T00:14:35.105Z,2.13
2022-09-15T00:17:01.620Z,2.70
2022-09-15T00:19:28.107Z,2.05
2022-09-15T00:21:54.521Z,2.03
2022-09-15T00:24:21.007Z,2.42
2022-09-15T00:26:47.463Z,2.10
2022-09-15T00:29:13.900Z,2.08
2022-09-15T00:31:40.289Z,2.10
2022-09-15T00:34:07.189Z,2.08
2022-09-15T00:36:34.018Z,1.83
2022-09-15T00:39:00.983Z,2.00
2022-09-15T00:41:27.785Z,2.28
2022-09-15T00:44:00.658Z,2.25
2022-09-15T00:46:40.013Z,2.50
2022-09-15T00:49:29.523Z,2.63
2022-09-15T00:52:03.880Z,2.07
2022-09-15T00:54:41.981Z,2.45
2022-09-15T00:57:14.335Z,2.38
2022-09-15T00:59:42.690Z,2.15
2022-09-15T01:02:22.350Z,2.30
2022-09-15T01:04:56.012Z,2.47
2022-09-15T01:07:32.687Z,2.33
2022-09-15T01:10:02.762Z,2.78
2022-09-15T01:12:29.185Z,2.55
2022-09-15T01:14:55.680Z,2.70
2022-09-15T01:17:49.879Z,2.90
2022-09-15T01:21:07.442Z,2.45
2022-09-15T01:23:36.912Z,2.60
2022-09-15T01:26:36.691Z,2.97
2022-09-15T01:29:36.910Z,2.55
2022-09-15T01:32:28.323Z,2.53
2022-09-15T01:35:20.442Z,3.15
2022-09-15T01:37:53.485Z,2.60
2022-09-15T01:40:22.990Z,2.63
2022-09-15T01:42:51.048Z,3.15
2022-09-15T01:45:29.069Z,3.03
2022-09-15T01:47:58.512Z,5.00
2022-09-15T01:50:31.488Z,3.70
2022-09-15T01:53:02.798Z,3.38
2022-09-15T01:56:00.874Z,3.05
2022-09-15T01:58:27.303Z,3.33
2022-09-15T02:01:00.234Z,3.92
2022-09-15T02:03:35.064Z,3.90
2022-09-15T02:06:07.233Z,3.17
2022-09-15T02:08:49.856Z,3.60
2022-09-15T02:11:19.681Z,3.90
2022-09-15T02:13:59.840Z,3.65
2022-09-15T02:16:32.127Z,3.28
2022-09-15T02:19:34.314Z,2.75
2022-09-15T02:22:08.048Z,3.55
2022-09-15T02:24:40.862Z,3.03
2022-09-15T02:27:22.176Z,3.33
2022-09-15T02:29:52.538Z,3.85
2022-09-15T02:32:23.645Z,3.47
2022-09-15T02:34:53.283Z,4.25
2022-09-15T02:37:21.886Z,3.47
2022-09-15T02:39:58.025Z,3.58
2022-09-15T02:42:30.246Z,3.50
2022-09-15T02:44:57.690Z,3.50
2022-09-15T02:47:25.288Z,3.83
2022-09-15T02:49:52.022Z,3.90
2022-09-15T02:52:18.457Z,3.60
2022-09-15T02:54:44.862Z,3.40
2022-09-15T02:57:11.528Z,3.60
2022-09-15T02:59:56.379Z,3.17
2022-09-15T03:02:23.542Z,3.77
2022-09-15T03:04:50.462Z,3.67
2022-09-15T03:07:18.504Z,3.20
2022-09-15T03:09:45.285Z,3.10
2022-09-15T03:12:11.734Z,3.90
2022-09-15T03:14:38.317Z,3.50
2022-09-15T03:17:04.986Z,3.13
2022-09-15T03:19:31.783Z,3.53
2022-09-15T03:21:58.192Z,3.40
2022-09-15T03:24:24.574Z,3.20
2022-09-15T03:26:50.996Z,3.10
2022-09-15T03:29:17.492Z,3.25
2022-09-15T03:31:44.150Z,2.80
2022-09-15T03:34:10.670Z,3.58
2022-09-15T03:36:38.225Z,2.75
2022-09-15T03:39:04.661Z,2.37
2022-09-15T03:41:31.040Z,2.85
2022-09-15T03:43:57.700Z,2.67
2022-09-15T03:46:24.136Z,2.10
2022-09-15T03:48:50.530Z,2.40
2022-09-15T03:51:16.964Z,2.60
2022-09-15T03:53:43.413Z,2.30
2022-09-15T03:56:26.245Z,2.47
2022-09-15T03:58:53.232Z,2.35
2022-09-15T04:01:20.811Z,2.42
2022-09-15T04:03:50.936Z,2.43
2022-09-15T04:06:19.750Z,2.00
2022-09-15T04:08:46.594Z,1.77
2022-09-15T04:11:13.910Z,2.28
2022-09-15T04:13:41.996Z,2.20
2022-09-15T04:16:12.654Z,1.97
2022-09-15T04:18:39.219Z,2.05
2022-09-15T04:21:13.233Z,2.20
2022-09-15T04:23:41.115Z,1.80
2022-09-15T04:26:14.345Z,1.83
2022-09-15T04:28:40.808Z,2.00
2022-09-15T04:31:12.800Z,2.17
2022-09-15T04:33:41.093Z,1.75
2022-09-15T04:36:21.085Z,2.17
2022-09-15T04:38:48.110Z,2.03
2022-09-15T04:41:15.125Z,1.60
2022-09-15T04:43:43.298Z,1.80
2022-09-15T04:46:11.268Z,1.38
2022-09-15T04:48:37.907Z,2.03
2022-09-15T04:51:06.698Z,1.88
2022-09-15T04:53:33.761Z,1.80
2022-09-15T04:56:08.358Z,1.83
2022-09-15T04:58:39.933Z,1.90
2022-09-15T05:01:18.308Z,1.90
2022-09-15T05:03:46.463Z,2.17
2022-09-15T05:06:15.584Z,2.10
2022-09-15T05:08:42.085Z,1.80
2022-09-15T05:11:11.724Z,1.75
2022-09-15T05:13:40.126Z,1.83
2022-09-15T05:16:09.681Z,1.90
2022-09-15T05:18:36.176Z,1.60
2022-09-15T05:21:04.636Z,1.77
2022-09-15T05:23:33.145Z,1.80
2022-09-15T05:26:02.329Z,1.60
2022-09-15T05:28:28.966Z,1.45
2022-09-15T05:30:55.801Z,1.00
2022-09-15T05:33:23.571Z,1.85
2022-09-15T05:35:55.046Z,1.50
2022-09-15T05:38:22.180Z,1.20
2022-09-15T05:40:49.203Z,1.42
2022-09-15T05:43:16.377Z,1.53
2022-09-15T05:45:42.775Z,1.63
2022-09-15T05:48:13.483Z,1.58
2022-09-15T05:50:49.274Z,1.33
2022-09-15T05:53:15.683Z,1.98
2022-09-15T05:55:42.429Z,1.30
2022-09-15T05:58:08.847Z,1.52
2022-09-15T06:00:35.939Z,1.55
2022-09-15T06:03:02.744Z,1.40
2022-09-15T06:05:29.753Z,1.63
2022-09-15T06:07:56.810Z,1.30
2022-09-15T06:10:24.962Z,1.10
2022-09-15T06:12:55.880Z,1.10
2022-09-15T06:15:23.379Z,1.40
2022-09-15T06:17:49.888Z,1.45
2022-09-15T06:20:16.866Z,2.00
2022-09-15T06:22:43.344Z,1.52
2022-09-15T06:25:10.928Z,1.65
2022-09-15T06:27:37.364Z,1.48
2022-09-15T06:30:04.487Z,1.60
2022-09-15T06:32:30.973Z,1.30
2022-09-15T06:34:57.774Z,1.10
2022-09-15T06:37:24.233Z,1.42
2022-09-15T06:39:51.127Z,1.73
2022-09-15T06:42:17.590Z,1.10
2022-09-15T06:44:43.992Z,1.60
2022-09-15T06:47:10.732Z,1.25
2022-09-15T06:49:37.150Z,1.60
2022-09-15T06:52:05.090Z,1.50
2022-09-15T06:54:31.567Z,1.20
2022-09-15T06:56:57.999Z,1.70
2022-09-15T06:59:24.632Z,1.02
2022-09-15T07:01:54.972Z,1.20
2022-09-15T07:04:23.050Z,1.38
2022-09-15T07:06:50.455Z,1.30
2022-09-15T07:09:17.052Z,1.00
2022-09-15T07:11:43.519Z,1.10
2022-09-15T07:14:10.892Z,1.23
2022-09-15T07:16:37.336Z,1.60
2022-09-15T07:19:05.800Z,1.15
2022-09-15T07:21:32.240Z,1.10
2022-09-15T07:23:59.971Z,1.20
2022-09-15T07:26:29.978Z,1.30
2022-09-15T07:28:59.485Z,0.90
2022-09-15T07:31:28.198Z,0.90
2022-09-15T07:33:54.721Z,1.20
2022-09-15T07:36:21.621Z,1.10
2022-09-15T07:38:49.757Z,1.00
2022-09-15T07:41:27.417Z,1.23
2022-09-15T07:43:57.041Z,1.27
2022-09-15T07:46:25.094Z,1.00
2022-09-15T07:48:56.239Z,1.38
2022-09-15T07:51:23.298Z,0.82
2022-09-15T07:53:50.285Z,1.40
2022-09-15T07:56:20.618Z,1.08
2022-09-15T07:58:48.324Z,1.00
2022-09-15T08:01:15.901Z,1.02
2022-09-15T08:03:44.845Z,1.10
2022-09-15T08:06:12.088Z,1.30
2022-09-15T08:08:40.189Z,0.93
2022-09-15T08:11:08.530Z,1.20
2022-09-15T08:13:35.246Z,1.27
2022-09-15T08:16:09.650Z,1.33
2022-09-15T08:18:36.755Z,0.63
2022-09-15T08:21:07.470Z,1.27
2022-09-15T08:23:33.913Z,1.27
2022-09-15T08:26:00.820Z,1.30
2022-09-15T08:28:27.891Z,1.30
2022-09-15T08:31:01.944Z,1.25
2022-09-15T08:33:29.351Z,1.08
2022-09-15T08:36:01.553Z,1.40
2022-09-15T08:38:28.118Z,1.45
2022-09-15T08:41:01.923Z,1.58
2022-09-15T08:43:37.072Z,1.70
2022-09-15T08:46:06.168Z,1.42
2022-09-15T08:49:35.534Z,1.00
2022-09-15T08:52:16.312Z,1.23
2022-09-15T08:54:45.717Z,1.20
2022-09-15T08:57:21.718Z,0.98
2022-09-15T08:59:48.127Z,0.98
2022-09-15T09:02:33.420Z,1.30
2022-09-15T09:05:18.464Z,1.90
2022-09-15T09:07:44.887Z,1.45
2022-09-15T09:10:34.485Z,5.32
2022-09-15T09:13:22.803Z,1.38
2022-09-15T09:16:14.838Z,2.13
2022-09-15T09:18:47.573Z,1.17
2022-09-15T09:21:30.042Z,1.50
2022-09-15T09:24:32.964Z,0.88
2022-09-15T09:26:59.431Z,1.27
2022-09-15T09:29:37.266Z,1.20
2022-09-15T09:32:11.107Z,1.00
2022-09-15T09:34:50.496Z,1.13
2022-09-15T09:37:17.291Z,1.48
2022-09-15T09:39:43.731Z,1.40
2022-09-15T09:42:15.772Z,1.20
2022-09-15T09:44:42.424Z,0.70
2022-09-15T09:47:08.840Z,0.95
2022-09-15T09:49:40.875Z,1.10
2022-09-15T09:52:07.278Z,1.30
2022-09-15T09:54:35.537Z,1.03
2022-09-15T09:57:14.002Z,1.02
2022-09-15T09:59:46.649Z,1.55
2022-09-15T10:02:16.277Z,1.17
2022-09-15T10:04:48.363Z,1.30
2022-09-15T10:07:21.188Z,1.47
2022-09-15T10:09:50.835Z,1.17
2022-09-15T10:12:23.070Z,1.20
2022-09-15T10:14:52.656Z,1.17
2022-09-15T10:17:23.127Z,1.70
2022-09-15T10:19:52.755Z,1.13
2022-09-15T10:22:32.541Z,1.50
2022-09-15T10:25:01.092Z,1.20
2022-09-15T10:27:31.981Z,1.83
2022-09-15T10:30:30.797Z,1.58
2022-09-15T10:33:23.801Z,1.40
2022-09-15T10:35:51.180Z,1.50
2022-09-15T10:38:30.649Z,1.58
2022-09-15T10:41:13.838Z,1.20
2022-09-15T10:43:55.652Z,1.67
2022-09-15T10:46:45.158Z,1.40
2022-09-15T10:49:28.300Z,1.30
2022-09-15T10:52:19.320Z,1.02
2022-09-15T10:55:03.646Z,1.02
2022-09-15T10:57:58.931Z,1.42
2022-09-15T11:00:28.482Z,0.40
2022-09-15T11:03:17.306Z,0.80
2022-09-15T11:06:09.611Z,0.50
2022-09-15T11:08:45.342Z,0.90
2022-09-15T11:11:41.046Z,0.70
2022-09-15T11:14:25.897Z,0.90
2022-09-15T11:17:04.738Z,0.85
2022-09-15T11:19:49.791Z,0.47
2022-09-15T11:22:35.925Z,1.15
2022-09-15T11:25:03.835Z,0.82
2022-09-15T11:27:36.149Z,0.40
2022-09-15T11:30:20.044Z,1.00
2022-09-15T11:32:57.301Z,0.80
2022-09-15T11:35:39.257Z,0.85
2022-09-15T11:38:21.614Z,0.80
2022-09-15T11:40:55.131Z,0.87
2022-09-15T11:43:34.377Z,0.40
2022-09-15T11:46:02.806Z,0.80
2022-09-15T11:48:55.347Z,0.47
2022-09-15T11:51:25.331Z,1.00
2022-09-15T11:54:01.727Z,0.80
2022-09-15T11:56:33.643Z,1.17
2022-09-15T11:59:32.603Z,1.52
2022-09-15T12:02:20.578Z,0.70
2022-09-15T12:05:11.309Z,0.70
2022-09-15T12:07:46.030Z,0.63
2022-09-15T12:10:21.777Z,0.70
2022-09-15T12:12:51.537Z,0.77
2022-09-15T12:15:20.330Z,0.45
2022-09-15T12:17:54.544Z,0.50
2022-09-15T12:20:36.447Z,0.50
2022-09-15T12:23:18.050Z,0.80
2022-09-15T12:26:01.055Z,0.80
2022-09-15T12:28:39.822Z,0.60
2022-09-15T12:31:27.913Z,0.60
2022-09-15T12:34:14.411Z,0.50
2022-09-15T12:36:46.922Z,0.80
2022-09-15T12:39:29.653Z,0.88
2022-09-15T12:42:12.678Z,0.50
2022-09-15T12:44:44.723Z,0.60
2022-09-15T12:47:35.070Z,0.60
2022-09-15T12:50:08.681Z,0.50
2022-09-15T12:52:45.371Z,0.50
2022-09-15T12:55:47.416Z,0.88
2022-09-15T12:58:30.320Z,0.80
2022-09-15T13:01:18.965Z,0.70
2022-09-15T13:03:45.709Z,0.70
2022-09-15T13:06:24.965Z,0.95
2022-09-15T13:08:55.383Z,0.60
2022-09-15T13:11:34.725Z,0.80
2022-09-15T13:14:04.082Z,0.87
2022-09-15T13:16:59.595Z,0.60
2022-09-15T13:19:41.367Z,0.80
2022-09-15T13:22:19.866Z,0.93
2022-09-15T13:24:46.220Z,0.88
2022-09-15T13:27:14.045Z,1.00
2022-09-15T13:29:49.399Z,0.88
2022-09-15T13:32:34.287Z,1.08
2022-09-15T13:35:18.358Z,1.48
2022-09-15T13:38:22.110Z,1.27
2022-09-15T13:41:12.941Z,1.00
2022-09-15T13:43:59.654Z,0.80
2022-09-15T13:46:59.608Z,0.60
2022-09-15T13:49:44.175Z,0.40
2022-09-15T13:52:22.164Z,0.80
2022-09-15T13:55:29.776Z,0.80
2022-09-15T14:00:54.241Z,0.90
2022-09-15T14:03:37.161Z,1.05
2022-09-15T14:06:22.304Z,1.10
2022-09-15T14:08:57.090Z,1.20
2022-09-15T14:11:32.643Z,1.13
2022-09-15T14:14:00.672Z,0.80
2022-09-15T14:16:27.854Z,1.15
2022-09-15T14:18:57.551Z,1.48
2022-09-15T14:21:34.560Z,1.60
2022-09-15T14:24:14.652Z,1.85
2022-09-15T14:26:41.057Z,1.55
2022-09-15T14:29:07.518Z,1.00
2022-09-15T14:31:40.989Z,1.20
2022-09-15T14:34:26.977Z,1.37
2022-09-15T14:37:01.915Z,1.10
2022-09-15T14:39:28.494Z,1.60
2022-09-15T14:41:55.076Z,1.08
2022-09-15T14:47:27.981Z,1.00
2022-09-15T14:50:09.769Z,1.20
2022-09-15T14:52:41.383Z,1.00
2022-09-15T14:55:14.069Z,0.80
2022-09-15T14:57:46.149Z,0.60
2022-09-15T15:00:19.404Z,1.20
2022-09-15T15:03:03.638Z,1.05
2022-09-15T15:05:47.758Z,2.22
2022-09-15T15:08:27.379Z,2.13
2022-09-15T15:10:54.302Z,1.90
2022-09-15T15:13:21.210Z,2.10
2022-09-15T15:15:47.936Z,1.98
2022-09-15T15:18:46.867Z,2.30
2022-09-15T15:21:36.258Z,2.47
2022-09-15T15:24:17.327Z,2.28
2022-09-15T15:26:47.922Z,2.50
2022-09-15T15:29:46.058Z,2.08
2022-09-15T15:32:20.319Z,2.33
2022-09-15T15:34:55.912Z,2.33
2022-09-15T15:37:28.963Z,2.38
2022-09-15T15:39:57.715Z,2.20
2022-09-15T15:42:24.812Z,2.00
2022-09-15T15:45:20.083Z,2.22
2022-09-15T15:47:46.478Z,2.40
2022-09-15T15:50:21.828Z,2.42
2022-09-15T15:52:49.548Z,2.10
2022-09-15T15:55:24.251Z,2.30
2022-09-15T15:57:53.586Z,2.40
2022-09-15T16:00:29.643Z,2.25
2022-09-15T16:02:56.287Z,2.80
2022-09-15T16:05:27.627Z,2.20
2022-09-15T16:07:56.098Z,2.28
2022-09-15T16:10:24.477Z,2.40
2022-09-15T16:12:50.913Z,3.08
2022-09-15T16:15:20.373Z,3.53
2022-09-15T16:17:47.482Z,2.73
2022-09-15T16:20:25.117Z,2.80
2022-09-15T16:22:52.333Z,2.58
2022-09-15T16:25:28.688Z,3.03
2022-09-15T16:27:55.346Z,3.20
2022-09-15T16:30:21.751Z,3.63
2022-09-15T16:32:48.133Z,2.83
2022-09-15T16:35:33.274Z,3.17
2022-09-15T16:37:59.784Z,3.15
2022-09-15T16:40:26.423Z,2.70
2022-09-15T16:42:52.932Z,2.70
2022-09-15T16:45:25.866Z,3.20
2022-09-15T16:47:52.349Z,3.25
2022-09-15T16:50:18.753Z,3.40
2022-09-15T16:52:45.204Z,3.38
2022-09-15T16:55:23.418Z,4.43
2022-09-15T16:57:50.516Z,2.78
2022-09-15T17:00:17.501Z,3.10
2022-09-15T17:02:43.893Z,3.92
2022-09-15T17:05:32.798Z,4.03
2022-09-15T17:07:59.237Z,4.53
2022-09-15T17:10:25.824Z,4.53
2022-09-15T17:12:52.446Z,4.85
2022-09-15T17:15:24.449Z,4.75
2022-09-15T17:17:50.956Z,4.28
2022-09-15T17:20:18.991Z,4.93
2022-09-15T17:22:47.098Z,4.85
2022-09-15T17:25:34.935Z,5.10
2022-09-15T17:28:02.406Z,5.30
2022-09-15T17:30:32.204Z,5.28
2022-09-15T17:33:12.169Z,4.97
2022-09-15T17:35:38.894Z,4.80
2022-09-15T17:38:06.172Z,4.82
2022-09-15T17:40:33.700Z,5.50
2022-09-15T17:43:00.870Z,5.25
2022-09-15T17:45:30.103Z,4.70
2022-09-15T17:47:56.702Z,4.82
2022-09-15T17:50:25.306Z,5.88
2022-09-15T17:52:51.757Z,4.72
2022-09-15T17:55:36.349Z,4.50
2022-09-15T17:58:03.126Z,5.03
2022-09-15T18:00:35.439Z,4.40
2022-09-15T18:03:05.381Z,4.50
2022-09-15T18:05:34.560Z,4.90
2022-09-15T18:08:03.657Z,4.30
2022-09-15T18:10:32.082Z,4.20
2022-09-15T18:12:59.030Z,4.50
2022-09-15T18:15:28.250Z,3.70
2022-09-15T18:17:57.146Z,3.90
2022-09-15T18:20:28.650Z,3.72
2022-09-15T18:22:56.318Z,3.97
2022-09-15T18:25:27.209Z,4.22
2022-09-15T18:27:54.166Z,3.70
2022-09-15T18:30:23.153Z,4.93
2022-09-15T18:32:49.672Z,3.83
2022-09-15T18:35:18.867Z,4.60
2022-09-15T18:37:46.816Z,4.53
2022-09-15T18:40:16.297Z,4.22
2022-09-15T18:42:43.779Z,4.72
2022-09-15T18:45:13.221Z,4.32
2022-09-15T18:47:40.953Z,4.03
2022-09-15T18:50:07.799Z,4.43
2022-09-15T18:52:39.760Z,3.83
2022-09-15T18:55:08.078Z,4.07
2022-09-15T18:57:39.514Z,4.20
2022-09-15T19:00:12.512Z,3.70
2022-09-15T19:02:39.387Z,4.05
2022-09-15T19:05:07.347Z,4.20
2022-09-15T19:07:33.796Z,4.65
2022-09-15T19:10:00.659Z,4.40
2022-09-15T19:12:27.149Z,4.73
2022-09-15T19:14:53.629Z,4.97
2022-09-15T19:17:20.074Z,4.50
2022-09-15T19:19:46.484Z,4.70
2022-09-15T19:22:13.108Z,4.68
2022-09-15T19:24:39.539Z,4.63
2022-09-15T19:27:07.750Z,4.55
2022-09-15T19:29:36.145Z,4.53
2022-09-15T19:32:05.115Z,4.68
2022-09-15T19:34:31.723Z,5.43
2022-09-15T19:36:58.195Z,5.03
2022-09-15T19:39:24.634Z,5.00
2022-09-15T19:41:51.602Z,4.72
2022-09-15T19:44:18.075Z,5.65
2022-09-15T19:46:44.606Z,5.35
2022-09-15T19:49:11.465Z,5.57
2022-09-15T19:51:38.282Z,5.97
2022-09-15T19:54:05.002Z,5.20
2022-09-15T19:56:31.675Z,5.43
2022-09-15T19:58:59.111Z,5.75
2022-09-15T20:01:28.500Z,6.00
2022-09-15T20:03:56.383Z,5.75
2022-09-15T20:06:27.604Z,6.22
2022-09-15T20:08:59.500Z,6.13
2022-09-15T20:11:27.730Z,6.20
2022-09-15T20:13:54.924Z,6.33
2022-09-15T20:16:23.126Z,6.10
2022-09-15T20:18:51.221Z,5.75
2022-09-15T20:21:38.827Z,6.63
2022-09-15T20:24:08.309Z,5.97
2022-09-15T20:26:34.832Z,6.23
2022-09-15T20:29:02.519Z,6.00
2022-09-15T20:31:30.281Z,6.78
2022-09-15T20:33:56.707Z,5.97
2022-09-15T20:36:27.438Z,7.05
2022-09-15T20:38:54.544Z,6.87
2022-09-15T20:41:24.365Z,6.30
2022-09-15T20:43:51.309Z,6.70
2022-09-15T20:46:19.896Z,6.55
2022-09-15T20:48:46.902Z,6.22
2022-09-15T20:51:15.895Z,5.60
2022-09-15T20:53:47.644Z,5.85
2022-09-15T20:56:15.402Z,6.45
2022-09-15T20:58:42.431Z,6.82
2022-09-15T21:01:13.619Z,6.75
2022-09-15T21:03:42.318Z,6.43
2022-09-15T21:06:11.325Z,6.60
2022-09-15T21:08:37.851Z,6.95
2022-09-15T21:11:05.833Z,7.05
2022-09-15T21:13:36.176Z,6.72
2022-09-15T21:16:07.796Z,5.97
2022-09-15T21:18:38.908Z,6.97
2022-09-15T21:21:16.167Z,7.07
2022-09-15T21:23:43.710Z,6.25
2022-09-15T21:26:13.003Z,6.20
2022-09-15T21:28:39.682Z,5.97
2022-09-15T21:31:09.027Z,6.68
2022-09-15T21:33:36.563Z,7.22
2022-09-15T21:36:10.422Z,7.07
2022-09-15T21:38:39.015Z,6.80
2022-09-15T21:41:06.282Z,6.73
2022-09-15T21:43:36.011Z,6.80
2022-09-15T21:46:04.788Z,7.82
2022-09-15T21:48:35.288Z,7.75
2022-09-15T21:51:03.911Z,7.80
2022-09-15T21:53:30.543Z,8.27
2022-09-15T21:56:00.993Z,8.18
2022-09-15T21:58:31.959Z,8.05
2022-09-15T22:00:58.428Z,8.18
2022-09-15T22:03:24.900Z,8.23
2022-09-15T22:05:51.846Z,8.30
2022-09-15T22:08:18.349Z,8.70
2022-09-15T22:10:44.872Z,8.82
2022-09-15T22:13:11.744Z,9.15
2022-09-15T22:15:38.190Z,8.65
2022-09-15T22:18:04.798Z,8.07
2022-09-15T22:20:31.227Z,8.60
2022-09-15T22:23:00.671Z,9.00
2022-09-15T22:25:27.383Z,8.68
2022-09-15T22:27:53.781Z,9.45
2022-09-15T22:30:20.202Z,9.27
2022-09-15T22:32:46.693Z,9.38
2022-09-15T22:35:13.260Z,8.90
2022-09-15T22:37:39.756Z,8.43
2022-09-15T22:40:06.651Z,10.18
2022-09-15T22:42:33.080Z,9.50
2022-09-15T22:44:59.557Z,10.35
2022-09-15T22:47:25.979Z,9.35
2022-09-15T22:49:52.442Z,10.90
2022-09-15T22:52:19.671Z,9.90
2022-09-15T22:54:46.196Z,9.80
2022-09-15T22:57:12.597Z,10.02
2022-09-15T22:59:39.085Z,9.80
2022-09-15T23:02:05.615Z,9.63
2022-09-15T23:04:32.104Z,9.27
2022-09-15T23:06:58.536Z,9.53
2022-09-15T23:09:24.947Z,10.05
2022-09-15T23:11:51.360Z,10.18
2022-09-15T23:14:18.088Z,10.77
2022-09-15T23:16:44.806Z,11.07
2022-09-15T23:19:13.146Z,10.67
2022-09-15T23:21:40.034Z,10.93
2022-09-15T23:24:06.736Z,10.75
2022-09-15T23:26:33.198Z,11.98
2022-09-15T23:28:59.644Z,11.38
2022-09-15T23:31:26.132Z,11.67
2022-09-15T23:33:52.588Z,10.93
2022-09-15T23:36:19.747Z,11.65
2022-09-15T23:38:46.902Z,12.07
2022-09-15T23:41:14.556Z,11.43
2022-09-15T23:43:41.135Z,10.63
2022-09-15T23:46:07.869Z,10.57
2022-09-15T23:48:34.790Z,10.18
2022-09-15T23:51:02.056Z,11.20
2022-09-15T23:53:29.443Z,10.60
2022-09-15T23:55:56.578Z,9.97
2022-09-15T23:58:23.088Z,9.95
